Time;durP1;ratioP1;P1;durP2;ratioP2;P2;SDS_P1;SDS_P2;PMS_P1;PMS_P2;Temp;Humidity;BMP_temperature;BMP_pressure;BME280_temperature;BME280_humidity;BME280_pressure;Samples;Min_cycle;Max_cycle;Signal;HPM_P1;HPM_P2
2022/08/02 00:00:01;;;;;;;1999.90;999.90;;;16.50;99.90;;;;;;4916671;29;20374;-59
2022/08/02 00:02:30;;;;;;;1999.90;999.90;;;16.50;99.90;;;;;;4917047;29;20211;-59
2022/08/02 00:04:57;;;;;;;1999.90;999.90;;;16.30;99.90;;;;;;4916987;29;20556;-59
2022/08/02 00:07:24;;;;;;;1999.90;999.90;;;16.20;99.90;;;;;;4917065;29;20231;-60
2022/08/02 00:09:51;;;;;;;1999.90;999.90;;;16.20;99.90;;;;;;4916960;29;20198;-59
2022/08/02 00:12:18;;;;;;;1999.90;999.90;;;16.20;99.90;;;;;;4916613;29;20660;-60
2022/08/02 00:14:45;;;;;;;1999.90;999.90;;;16.30;99.90;;;;;;4916573;29;20585;-59
2022/08/02 00:17:12;;;;;;;1999.90;999.90;;;16.30;99.90;;;;;;4916562;29;20610;-59
2022/08/02 00:19:41;;;;;;;1999.90;999.90;;;16.40;99.90;;;;;;4916746;29;20213;-59
2022/08/02 00:22:08;;;;;;;1999.90;999.90;;;16.40;99.90;;;;;;4916385;29;20666;-59
2022/08/02 00:24:35;;;;;;;1999.90;999.90;;;16.50;99.90;;;;;;4916852;29;20205;-59
2022/08/02 00:27:02;;;;;;;1999.90;999.90;;;16.40;99.90;;;;;;4916614;29;20223;-59
2022/08/02 00:29:30;;;;;;;1999.90;999.90;;;16.30;99.90;;;;;;4916187;29;20240;-59
2022/08/02 00:31:57;;;;;;;1999.90;999.90;;;16.30;99.90;;;;;;4916613;29;20214;-59
2022/08/02 00:34:24;;;;;;;1999.90;999.90;;;16.30;99.90;;;;;;4916580;29;20207;-59
2022/08/02 00:36:53;;;;;;;1999.90;999.90;;;16.30;99.90;;;;;;4916784;29;20207;-59
2022/08/02 00:39:20;;;;;;;1999.90;999.90;;;16.30;99.90;;;;;;4916603;29;20218;-59
2022/08/02 00:41:48;;;;;;;1999.90;999.90;;;16.20;99.90;;;;;;4916545;29;20208;-59
2022/08/02 00:44:15;;;;;;;1999.90;999.90;;;16.00;99.90;;;;;;4916437;29;20215;-59
2022/08/02 00:46:43;;;;;;;1999.90;999.90;;;15.80;99.90;;;;;;4916116;29;20264;-60
2022/08/02 00:49:10;;;;;;;1999.90;999.90;;;15.80;99.90;;;;;;4916104;29;20677;-59
2022/08/02 00:51:37;;;;;;;1999.90;999.90;;;15.90;99.90;;;;;;4916241;29;20208;-60
2022/08/02 00:54:07;;;;;;;1999.90;999.90;;;16.00;99.90;;;;;;4916058;29;20662;-59
2022/08/02 00:56:34;;;;;;;1999.90;999.90;;;16.00;99.90;;;;;;4916478;29;20197;-60
2022/08/02 00:59:01;;;;;;;1999.90;999.90;;;16.00;99.90;;;;;;4921728;29;20558;-60
2022/08/02 01:01:38;;;;;;;1999.90;999.90;;;16.10;99.90;;;;;;4922538;29;20203;-59
2022/08/02 01:04:06;;;;;;;1999.90;999.90;;;16.20;99.90;;;;;;4922296;29;20268;-59
2022/08/02 01:06:34;;;;;;;1999.90;999.90;;;16.20;99.90;;;;;;4922241;29;20209;-59
2022/08/02 01:09:01;;;;;;;1999.90;999.90;;;16.20;99.90;;;;;;4922161;29;20231;-59
2022/08/02 01:11:30;;;;;;;1999.90;999.90;;;16.10;99.90;;;;;;4922470;29;20204;-59
2022/08/02 01:14:02;;;;;;;1999.90;999.90;;;16.00;99.90;;;;;;4922459;29;20211;-60
2022/08/02 01:16:33;;;;;;;1999.90;999.90;;;16.00;99.90;;;;;;4922529;29;20581;-60
2022/08/02 01:19:08;;;;;;;1999.90;999.90;;;16.00;99.90;;;;;;4922506;29;20176;-60
2022/08/02 01:21:54;;;;;;;1999.90;999.90;;;16.10;99.90;;;;;;4922121;29;20192;-60
2022/08/02 01:24:30;;;;;;;1999.90;999.90;;;16.10;99.90;;;;;;4922107;29;20184;-61
2022/08/02 01:27:11;;;;;;;1999.90;999.90;;;16.00;99.90;;;;;;4922306;29;20189;-60
2022/08/02 01:29:45;;;;;;;1999.90;999.90;;;16.10;99.90;;;;;;4921778;29;20223;-60
2022/08/02 01:32:16;;;;;;;1999.90;999.90;;;16.00;99.90;;;;;;4922451;29;20188;-59
2022/08/02 01:34:49;;;;;;;1999.90;999.90;;;15.90;99.90;;;;;;4922330;29;20200;-59
2022/08/02 01:37:20;;;;;;;1999.90;999.90;;;15.80;99.90;;;;;;4922512;29;20193;-59
2022/08/02 01:39:51;;;;;;;1999.90;999.90;;;15.70;99.90;;;;;;4922070;29;20192;-60
2022/08/02 01:42:21;;;;;;;1999.90;999.90;;;15.60;99.90;;;;;;4922333;29;20197;-60
2022/08/02 01:44:52;;;;;;;1999.90;999.90;;;15.50;99.90;;;;;;4921937;29;20677;-60
2022/08/02 01:47:26;;;;;;;1999.90;999.90;;;15.60;99.90;;;;;;4921841;29;20215;-60
2022/08/02 01:49:57;;;;;;;1999.90;999.90;;;15.60;99.90;;;;;;4921964;29;20551;-60
2022/08/02 01:52:26;;;;;;;1999.90;999.90;;;15.60;99.90;;;;;;4921786;29;20193;-60
2022/08/02 01:55:00;;;;;;;1999.90;999.90;;;15.70;99.90;;;;;;4922081;29;20215;-60
2022/08/02 01:57:30;;;;;;;1999.90;999.90;;;15.70;99.90;;;;;;4922016;29;20189;-60
2022/08/02 02:00:00;;;;;;;1999.90;999.90;;;15.70;99.90;;;;;;4922012;29;20184;-60
2022/08/02 02:02:28;;;;;;;1999.90;999.90;;;15.60;99.90;;;;;;4921811;29;20206;-60
2022/08/02 02:04:59;;;;;;;1999.90;999.90;;;15.60;99.90;;;;;;4922063;29;20204;-60
2022/08/02 02:07:27;;;;;;;1999.90;999.90;;;15.50;99.90;;;;;;4921676;29;20564;-60
2022/08/02 02:09:55;;;;;;;1999.90;999.90;;;15.50;99.90;;;;;;4918777;29;20206;-60
2022/08/02 02:12:24;;;;;;;1999.90;999.90;;;15.50;99.90;;;;;;4918880;29;20586;-60
2022/08/02 02:14:54;;;;;;;1999.90;999.90;;;15.60;99.90;;;;;;4918689;29;20204;-60
2022/08/02 02:17:23;;;;;;;1999.90;999.90;;;15.60;99.90;;;;;;4919259;29;20207;-60
2022/08/02 02:19:53;;;;;;;1999.90;999.90;;;15.60;99.90;;;;;;4918601;29;20678;-60
2022/08/02 02:22:20;;;;;;;1999.90;999.90;;;15.60;99.90;;;;;;4918843;29;20200;-60
2022/08/02 02:24:47;;;;;;;1999.90;999.90;;;15.60;99.90;;;;;;4918459;29;20556;-60
2022/08/02 02:27:17;;;;;;;1999.90;999.90;;;15.60;99.90;;;;;;4918430;29;20214;-60
2022/08/02 02:29:46;;;;;;;1999.90;999.90;;;15.60;99.90;;;;;;4918370;29;20252;-60
2022/08/02 02:32:15;;;;;;;1999.90;999.90;;;15.50;99.90;;;;;;4918433;29;20212;-60
2022/08/02 02:34:46;;;;;;;1999.90;999.90;;;15.50;99.90;;;;;;4918874;29;20207;-59
2022/08/02 02:37:18;;;;;;;1999.90;999.90;;;15.50;99.90;;;;;;4918711;29;20184;-59
2022/08/02 02:39:48;;;;;;;1999.90;999.90;;;15.50;99.90;;;;;;4918577;29;20189;-60
2022/08/02 02:42:20;;;;;;;1999.90;999.90;;;15.60;99.90;;;;;;4918607;29;20196;-59
2022/08/02 02:44:48;;;;;;;1999.90;999.90;;;15.70;99.90;;;;;;4918205;29;20200;-59
2022/08/02 02:47:18;;;;;;;1999.90;999.90;;;15.70;99.90;;;;;;4918362;29;20207;-59
2022/08/02 02:49:47;;;;;;;1999.90;999.90;;;15.70;99.90;;;;;;4917972;29;20212;-59
2022/08/02 02:52:16;;;;;;;1999.90;999.90;;;15.60;99.90;;;;;;4918313;29;20212;-60
2022/08/02 02:54:46;;;;;;;1999.90;999.90;;;15.70;99.90;;;;;;4918242;29;20568;-60
2022/08/02 02:57:14;;;;;;;1999.90;999.90;;;15.70;99.90;;;;;;4918307;29;20209;-60
2022/08/02 02:59:42;;;;;;;1999.90;999.90;;;15.70;99.90;;;;;;4918030;29;20236;-60
2022/08/02 03:02:11;;;;;;;1999.90;999.90;;;15.70;99.90;;;;;;4918184;29;20207;-60
2022/08/02 03:04:41;;;;;;;1999.90;999.90;;;15.60;99.90;;;;;;4917749;29;20203;-59
2022/08/02 03:07:11;;;;;;;1999.90;999.90;;;15.60;99.90;;;;;;4917815;29;20200;-59
2022/08/02 03:09:38;;;;;;;1999.90;999.90;;;15.60;99.90;;;;;;4917587;29;20553;-59
2022/08/02 03:12:07;;;;;;;1999.90;999.90;;;15.50;99.90;;;;;;4918018;29;20355;-60
2022/08/02 03:14:35;;;;;;;1999.90;999.90;;;15.60;99.90;;;;;;4917593;29;20230;-59
2022/08/02 03:17:02;;;;;;;1999.90;999.90;;;15.50;99.90;;;;;;4917614;29;20210;-59
2022/08/02 03:19:29;;;;;;;1999.90;999.90;;;15.50;99.90;;;;;;4917746;29;20196;-60
2022/08/02 03:21:56;;;;;;;1999.90;999.90;;;15.40;99.90;;;;;;4917124;29;20744;-59
2022/08/02 03:24:25;;;;;;;1999.90;999.90;;;15.20;99.90;;;;;;4917469;29;20197;-60
2022/08/02 03:26:52;;;;;;;1999.90;999.90;;;15.20;99.90;;;;;;4917469;29;20677;-60
2022/08/02 03:29:19;;;;;;;1999.90;999.90;;;15.10;99.90;;;;;;4917116;29;20243;-60
2022/08/02 03:31:47;;;;;;;1999.90;999.90;;;15.20;99.90;;;;;;4917783;29;20207;-59
2022/08/02 03:34:14;;;;;;;1999.90;999.90;;;15.30;99.90;;;;;;4917224;29;20204;-60
2022/08/02 03:36:42;;;;;;;1999.90;999.90;;;15.40;99.90;;;;;;4917528;29;20211;-59
2022/08/02 03:39:10;;;;;;;1999.90;999.90;;;15.40;99.90;;;;;;4917708;29;20206;-59
2022/08/02 03:41:40;;;;;;;1999.90;999.90;;;15.40;99.90;;;;;;4917436;29;20208;-60
2022/08/02 03:44:09;;;;;;;1999.90;999.90;;;15.30;99.90;;;;;;4917305;29;20211;-60
2022/08/02 03:46:38;;;;;;;1999.90;999.90;;;15.30;99.90;;;;;;4917023;29;20617;-60
2022/08/02 03:49:07;;;;;;;1999.90;999.90;;;15.30;99.90;;;;;;4916899;29;20259;-59
2022/08/02 03:51:35;;;;;;;1999.90;999.90;;;15.20;99.90;;;;;;4917140;29;20212;-60
2022/08/02 03:54:03;;;;;;;1999.90;999.90;;;15.10;99.90;;;;;;4917231;29;20196;-60
2022/08/02 03:56:30;;;;;;;1999.90;999.90;;;15.10;99.90;;;;;;4917214;29;20211;-60
2022/08/02 03:59:09;;;;;;;1999.90;999.90;;;15.10;99.90;;;;;;4916610;29;20683;-59
2022/08/02 04:01:37;;;;;;;1999.90;999.90;;;15.10;99.90;;;;;;4917211;29;20195;-59
2022/08/02 04:04:05;;;;;;;1999.90;999.90;;;15.10;99.90;;;;;;4916803;29;20678;-59
2022/08/02 04:06:32;;;;;;;1999.90;999.90;;;15.10;99.90;;;;;;4917003;29;20259;-59
2022/08/02 04:08:59;;;;;;;1999.90;999.90;;;15.10;99.90;;;;;;4916901;29;20278;-59
2022/08/02 04:11:32;;;;;;;1999.90;999.90;;;15.10;99.90;;;;;;4916594;29;20208;-60
2022/08/02 04:14:01;;;;;;;1999.90;999.90;;;15.10;99.90;;;;;;4916612;29;20196;-59
2022/08/02 04:16:38;;;;;;;1999.90;999.90;;;15.10;99.90;;;;;;4916558;29;20669;-60
2022/08/02 04:19:08;;;;;;;1999.90;999.90;;;15.20;99.90;;;;;;4916889;29;20195;-59
2022/08/02 04:21:37;;;;;;;1999.90;999.90;;;15.40;99.90;;;;;;4916494;29;20189;-60
2022/08/02 04:24:07;;;;;;;1999.90;999.90;;;15.30;99.90;;;;;;4916444;29;20562;-60
2022/08/02 04:26:36;;;;;;;1999.90;999.90;;;15.10;99.90;;;;;;4916718;29;20200;-60
2022/08/02 04:29:03;;;;;;;1999.90;999.90;;;15.10;99.90;;;;;;4916080;29;20248;-59
2022/08/02 04:31:32;;;;;;;1999.90;999.90;;;15.20;99.90;;;;;;4916304;29;20207;-60
2022/08/02 04:34:00;;;;;;;1999.90;999.90;;;15.30;99.90;;;;;;4916322;29;20204;-59
2022/08/02 04:36:27;;;;;;;1999.90;999.90;;;15.40;99.90;;;;;;4916332;29;20208;-59
2022/08/02 04:38:55;;;;;;;1999.90;999.90;;;15.50;99.90;;;;;;4916272;29;20594;-60
2022/08/02 04:41:22;;;;;;;1999.90;999.90;;;15.70;99.90;;;;;;4916384;29;20216;-59
2022/08/02 04:43:49;;;;;;;1999.90;999.90;;;15.80;99.90;;;;;;4916225;29;20320;-59
2022/08/02 04:46:16;;;;;;;1999.90;999.90;;;16.00;99.90;;;;;;4916528;29;20208;-59
2022/08/02 04:48:45;;;;;;;1999.90;999.90;;;16.10;99.90;;;;;;4916131;29;20686;-59
2022/08/02 04:51:12;;;;;;;1999.90;999.90;;;16.40;99.90;;;;;;4915954;29;20284;-59
2022/08/02 04:53:39;;;;;;;1999.90;999.90;;;16.50;99.90;;;;;;4916379;29;20206;-59
2022/08/02 04:56:07;;;;;;;1999.90;999.90;;;16.60;99.90;;;;;;4916227;29;20689;-59
2022/08/02 04:58:34;;;;;;;1999.90;999.90;;;16.60;99.90;;;;;;4916137;29;20197;-59
2022/08/02 05:01:01;;;;;;;1999.90;999.90;;;16.70;99.90;;;;;;4916300;29;20207;-59
2022/08/02 05:03:28;;;;;;;1999.90;999.90;;;16.70;99.90;;;;;;4916249;29;20206;-60
2022/08/02 05:05:57;;;;;;;1999.90;999.90;;;16.70;99.90;;;;;;4916024;29;20219;-59
2022/08/02 05:08:24;;;;;;;1999.90;999.90;;;16.70;99.90;;;;;;4915876;29;20198;-59
2022/08/02 05:10:51;;;;;;;1999.90;999.90;;;16.70;99.90;;;;;;4916178;29;20206;-60
2022/08/02 05:13:18;;;;;;;1999.90;999.90;;;16.70;99.90;;;;;;4916249;29;20214;-59
2022/08/02 05:15:48;;;;;;;1999.90;999.90;;;16.70;99.90;;;;;;4915879;29;20686;-59
2022/08/02 05:18:15;;;;;;;1999.90;999.90;;;16.70;99.90;;;;;;4915731;29;20707;-59
2022/08/02 05:20:42;;;;;;;1999.90;999.90;;;16.70;99.90;;;;;;4915777;29;20535;-59
2022/08/02 05:23:11;;;;;;;1999.90;999.90;;;16.70;99.90;;;;;;4916055;29;20207;-59
2022/08/02 05:25:38;;;;;;;1999.90;999.90;;;16.80;99.90;;;;;;4916064;29;20196;-59
2022/08/02 05:28:05;;;;;;;1999.90;999.90;;;16.90;99.90;;;;;;4915548;29;20568;-58
2022/08/02 05:30:32;;;;;;;1999.90;999.90;;;17.00;99.90;;;;;;4915358;29;20238;-59
2022/08/02 05:32:59;;;;;;;1999.90;999.90;;;17.20;99.90;;;;;;4915883;29;20200;-58
2022/08/02 05:35:26;;;;;;;1999.90;999.90;;;17.60;99.90;;;;;;4915586;29;20211;-59
2022/08/02 05:37:53;;;;;;;1999.90;999.90;;;18.20;99.90;;;;;;4915623;29;20208;-59
2022/08/02 05:40:22;;;;;;;1999.90;999.90;;;18.70;99.90;;;;;;4915822;29;20208;-59
2022/08/02 05:42:49;;;;;;;1999.90;999.90;;;19.10;99.90;;;;;;4916125;29;20215;-59
2022/08/02 05:45:16;;;;;;;1999.90;999.90;;;19.30;99.90;;;;;;4919222;29;20230;-59
2022/08/02 05:47:43;;;;;;;1999.90;999.90;;;19.40;99.90;;;;;;4919055;29;20200;-59
2022/08/02 05:50:11;;;;;;;1999.90;999.90;;;19.30;99.90;;;;;;4919039;29;20224;-60
2022/08/02 05:52:46;;;;;;;1999.90;999.90;;;19.10;99.90;;;;;;4918933;29;20200;-60
2022/08/02 05:55:17;;;;;;;1999.90;999.90;;;19.00;99.90;;;;;;4919034;29;20214;-59
2022/08/02 05:57:53;;;;;;;1999.90;999.90;;;18.80;99.90;;;;;;4919205;29;20199;-60
2022/08/02 06:00:21;;;;;;;1999.90;999.90;;;18.80;99.90;;;;;;4918917;29;20603;-59
2022/08/02 06:03:20;;;;;;;1999.90;999.90;;;18.80;99.90;;;;;;4919246;29;20200;-59
2022/08/02 06:05:53;;;;;;;1999.90;999.90;;;19.30;99.90;;;;;;4919097;29;20293;-61
2022/08/02 06:08:22;;;;;;;1999.90;999.90;;;20.00;99.90;;;;;;4918967;29;20192;-59
2022/08/02 06:10:55;;;;;;;1999.90;999.90;;;20.30;99.90;;;;;;4918770;29;20737;-59
2022/08/02 06:13:26;;;;;;;1999.90;999.90;;;21.10;99.90;;;;;;4919020;29;20198;-59
2022/08/02 06:15:57;;;;;;;1999.90;999.90;;;21.60;99.90;;;;;;4919103;29;20215;-59
2022/08/02 06:18:25;;;;;;;1999.90;999.90;;;21.50;99.90;;;;;;4919048;29;20191;-59
2022/08/02 06:20:53;;;;;;;1999.90;999.90;;;21.50;99.90;;;;;;4918895;29;20203;-59
2022/08/02 06:23:23;;;;;;;1999.90;999.90;;;21.60;99.90;;;;;;4918800;29;20260;-59
2022/08/02 06:25:52;;;;;;;1999.90;999.90;;;21.70;99.90;;;;;;4918512;29;20290;-59
2022/08/02 06:28:20;;;;;;;1999.90;999.90;;;22.00;99.90;;;;;;4918357;29;20203;-59
2022/08/02 06:30:48;;;;;;;1999.90;999.90;;;22.00;99.90;;;;;;4918015;29;20228;-59
2022/08/02 06:33:16;;;;;;;1999.90;999.90;;;22.20;99.90;;;;;;4918354;29;20559;-58
2022/08/02 06:35:46;;;;;;;1999.90;999.90;;;22.80;99.90;;;;;;4918033;29;20265;-59
2022/08/02 06:38:19;;;;;;;1999.90;999.90;;;23.00;99.90;;;;;;4918248;29;20194;-59
2022/08/02 06:40:52;;;;;;;1999.90;999.90;;;22.80;99.90;;;;;;4918473;29;20187;-59
2022/08/02 06:43:27;;;;;;;1999.90;999.90;;;22.70;99.90;;;;;;4918202;29;20193;-57
2022/08/02 06:45:56;;;;;;;1999.90;999.90;;;22.80;99.90;;;;;;4918487;29;20184;-58
2022/08/02 06:48:23;;;;;;;1999.90;999.90;;;22.90;99.90;;;;;;4917992;29;20279;-58
2022/08/02 06:50:50;;;;;;;1999.90;999.90;;;22.80;99.90;;;;;;4918188;29;20278;-58
2022/08/02 06:53:17;;;;;;;1999.90;999.90;;;22.90;99.90;;;;;;4918244;29;20200;-57
2022/08/02 06:55:44;;;;;;;1999.90;999.90;;;23.10;99.90;;;;;;4917118;29;20674;-57
2022/08/02 06:58:12;;;;;;;1999.90;999.90;;;23.10;99.90;;;;;;4917885;29;20219;-58
2022/08/02 07:00:39;;;;;;;1999.90;999.90;;;23.10;99.90;;;;;;4918081;29;20192;-58
2022/08/02 07:03:08;;;;;;;1999.90;999.90;;;22.80;99.90;;;;;;4917775;29;20216;-58
2022/08/02 07:05:35;;;;;;;1999.90;999.90;;;22.90;99.90;;;;;;4917799;29;20211;-57
2022/08/02 07:08:03;;;;;;;1999.90;999.90;;;23.40;99.90;;;;;;4917655;29;20201;-57
2022/08/02 07:10:30;;;;;;;1999.90;999.90;;;23.80;99.90;;;;;;4918035;29;20220;-57
2022/08/02 07:12:57;;;;;;;1999.90;999.90;;;24.30;99.90;;;;;;4917940;29;20200;-57
2022/08/02 07:15:24;;;;;;;1999.90;999.90;;;24.00;1.00;;;;;;4917694;29;20200;-57
2022/08/02 07:17:51;;;;;;;1999.90;999.90;;;24.10;1.00;;;;;;4917822;29;20229;-57
2022/08/02 07:20:20;;;;;;;1999.90;999.90;;;24.00;1.00;;;;;;4917715;29;20206;-57
2022/08/02 07:22:47;;;;;;;1999.90;999.90;;;24.50;1.00;;;;;;4917777;29;20214;-57
2022/08/02 07:25:14;;;;;;;1999.90;999.90;;;24.70;99.90;;;;;;4917393;29;20543;-57
2022/08/02 07:27:41;;;;;;;1999.90;999.90;;;24.70;1.00;;;;;;4917533;29;20204;-58
2022/08/02 07:30:10;;;;;;;1999.90;999.90;;;25.00;1.00;;;;;;4916859;29;20742;-57
2022/08/02 07:32:37;;;;;;;1999.90;999.90;;;25.50;99.90;;;;;;4917356;29;20568;-56
2022/08/02 07:35:06;;;;;;;1999.90;999.90;;;25.70;1.00;;;;;;4917601;29;20214;-57
2022/08/02 07:37:37;;;;;;;1999.90;999.90;;;25.10;1.00;;;;;;4917567;29;20204;-58
2022/08/02 07:40:06;;;;;;;1999.90;999.90;;;25.30;1.00;;;;;;4917489;29;20181;-57
2022/08/02 07:42:33;;;;;;;1999.90;999.90;;;25.20;1.00;;;;;;4917248;29;20200;-57
2022/08/02 07:45:00;;;;;;;1999.90;999.90;;;25.30;1.00;;;;;;4917170;29;20210;-57
2022/08/02 07:47:27;;;;;;;1999.90;999.90;;;25.80;1.00;;;;;;4917132;29;20208;-57
2022/08/02 07:49:54;;;;;;;1999.90;999.90;;;26.00;99.90;;;;;;4916791;29;20224;-58
2022/08/02 07:52:21;;;;;;;1999.90;999.90;;;26.50;1.00;;;;;;4916942;29;20251;-57
2022/08/02 07:54:49;;;;;;;1999.90;999.90;;;25.90;1.00;;;;;;4917127;29;20213;-58
2022/08/02 07:57:16;;;;;;;1999.90;999.90;;;25.50;99.90;;;;;;4916710;29;20251;-58
2022/08/02 07:59:45;;;;;;;1999.90;999.90;;;25.90;1.00;;;;;;4916995;29;20251;-58
2022/08/02 08:02:13;;;;;;;1999.90;999.90;;;26.10;99.90;;;;;;4916844;29;20581;-58
2022/08/02 08:04:41;;;;;;;1999.90;999.90;;;26.30;99.90;;;;;;4916847;29;20208;-57
2022/08/02 08:07:10;;;;;;;1999.90;999.90;;;26.30;99.90;;;;;;4915707;29;20279;-58
2022/08/02 08:09:39;;;;;;;1999.90;999.90;;;26.00;99.90;;;;;;4916838;29;20208;-57
2022/08/02 08:12:08;;;;;;;1999.90;999.90;;;26.10;99.90;;;;;;4916638;29;20223;-58
2022/08/02 08:14:36;;;;;;;1999.90;999.90;;;26.20;1.00;;;;;;4916830;29;20204;-59
2022/08/02 08:17:03;;;;;;;1999.90;999.90;;;26.00;1.00;;;;;;4916327;29;20606;-57
2022/08/02 08:19:30;;;;;;;1999.90;999.90;;;26.20;99.90;;;;;;4916458;29;20201;-57
2022/08/02 08:21:59;;;;;;;1999.90;999.90;;;26.90;99.90;;;;;;4916420;29;20221;-59
2022/08/02 08:24:26;;;;;;;1999.90;999.90;;;26.60;1.00;;;;;;4916719;29;20272;-59
2022/08/02 08:26:54;;;;;;;1999.90;999.90;;;26.60;1.00;;;;;;4916203;29;20204;-59
2022/08/02 08:29:23;;;;;;;1999.90;999.90;;;26.90;28.50;;;;;;4916283;29;20236;-59
2022/08/02 08:31:50;;;;;;;1999.90;999.90;;;27.40;99.90;;;;;;4916159;29;20235;-59
2022/08/02 08:34:17;;;;;;;1999.90;999.90;;;26.80;99.90;;;;;;4916580;29;20212;-59
2022/08/02 08:36:45;;;;;;;1999.90;999.90;;;27.00;99.90;;;;;;4916194;29;20677;-59
2022/08/02 08:39:12;;;;;;;1999.90;999.90;;;27.50;99.90;;;;;;4916275;29;20840;-59
2022/08/02 08:41:43;;;;;;;1999.90;999.90;;;27.80;1.00;;;;;;4916176;29;20204;-59
2022/08/02 08:44:10;;;;;;;1999.90;999.90;;;27.90;1.00;;;;;;4916405;29;20239;-59
2022/08/02 08:46:43;;;;;;;1999.90;999.90;;;27.60;1.00;;;;;;4916111;29;20208;-59
2022/08/02 08:49:17;;;;;;;1999.90;999.90;;;27.60;1.00;;;;;;4916460;29;20247;-60
2022/08/02 08:51:45;;;;;;;1999.90;999.90;;;27.90;1.00;;;;;;4916009;29;20208;-60
2022/08/02 08:54:17;;;;;;;1999.90;999.90;;;27.60;1.00;;;;;;4916305;29;20200;-59
2022/08/02 08:56:45;;;;;;;1999.90;999.90;;;27.60;99.90;;;;;;4915990;29;20244;-59
2022/08/02 08:59:12;;;;;;;1999.90;999.90;;;27.10;1.00;;;;;;4916364;29;20211;-60
2022/08/02 09:01:40;;;;;;;1999.90;999.90;;;27.00;1.00;;;;;;4915963;29;20583;-60
2022/08/02 09:04:07;;;;;;;1999.90;999.90;;;27.40;99.90;;;;;;4916231;29;20222;-60
2022/08/02 09:06:35;;;;;;;1999.90;999.90;;;27.60;99.90;;;;;;4915825;29;20614;-60
2022/08/02 09:09:01;;;;;;;1999.90;999.90;;;27.40;99.90;;;;;;4916280;29;20212;-60
2022/08/02 09:11:29;;;;;;;1999.90;999.90;;;27.70;99.90;;;;;;4915853;29;20220;-60
2022/08/02 09:13:57;;;;;;;1999.90;999.90;;;27.90;35.50;;;;;;4915990;29;20570;-60
2022/08/02 09:16:29;;;;;;;1999.90;999.90;;;28.00;99.90;;;;;;4915835;29;20207;-60
2022/08/02 09:18:58;;;;;;;1999.90;999.90;;;28.40;99.90;;;;;;4917674;29;20262;-60
2022/08/02 09:21:34;;;;;;;1999.90;999.90;;;29.10;1.00;;;;;;4919945;29;20192;-60
2022/08/02 09:24:01;;;;;;;1999.90;999.90;;;28.90;1.00;;;;;;4920003;29;20188;-60
2022/08/02 09:26:28;;;;;;;1999.90;999.90;;;28.10;59.80;;;;;;4919630;29;20207;-60
2022/08/02 09:29:01;;;;;;;1999.90;999.90;;;28.60;1.00;;;;;;4918991;29;20204;-60
2022/08/02 09:31:28;;;;;;;1999.90;999.90;;;28.60;1.00;;;;;;4919739;29;20214;-60
2022/08/02 09:33:58;;;;;;;1999.90;999.90;;;28.30;1.00;;;;;;4919510;29;20226;-59
2022/08/02 09:36:27;;;;;;;1999.90;999.90;;;28.10;1.00;;;;;;4919331;29;20189;-60
2022/08/02 09:38:57;;;;;;;1999.90;999.90;;;27.70;1.00;;;;;;4919366;29;20208;-60
2022/08/02 09:41:26;;;;;;;1999.90;999.90;;;27.60;82.80;;;;;;4919149;29;20206;-59
2022/08/02 09:43:54;;;;;;;1999.90;999.90;;;27.60;1.00;;;;;;4919156;29;20205;-59
2022/08/02 09:46:24;;;;;;;1999.90;999.90;;;27.40;1.00;;;;;;4919276;29;20251;-59
2022/08/02 09:48:53;;;;;;;1999.90;999.90;;;27.60;1.00;;;;;;4919515;29;20665;-59
2022/08/02 09:51:24;;;;;;;1999.90;999.90;;;27.90;1.00;;;;;;4919311;29;20216;-59
2022/08/02 09:53:54;;;;;;;1999.90;999.90;;;27.90;1.00;;;;;;4918877;29;20691;-59
2022/08/02 09:56:23;;;;;;;1999.90;999.90;;;27.40;1.00;;;;;;4919081;29;20210;-59
2022/08/02 09:58:52;;;;;;;1999.90;999.90;;;27.00;1.00;;;;;;4919056;29;20197;-59
2022/08/02 10:01:20;;;;;;;1999.90;999.90;;;27.50;1.00;;;;;;4918515;29;20205;-60
2022/08/02 10:03:58;;;;;;;1999.90;999.90;;;28.20;1.00;;;;;;4918942;29;20200;-60
2022/08/02 10:06:27;;;;;;;1999.90;999.90;;;27.50;1.00;;;;;;4919131;29;20227;-59
2022/08/02 10:08:55;;;;;;;1999.90;999.90;;;26.80;1.00;;;;;;4919087;29;20211;-59
2022/08/02 10:11:24;;;;;;;1999.90;999.90;;;26.70;1.00;;;;;;4918586;29;20267;-59
2022/08/02 10:13:52;;;;;;;1999.90;999.90;;;27.40;1.00;;;;;;4918920;29;20196;-58
2022/08/02 10:16:22;;;;;;;1999.90;999.90;;;26.90;1.00;;;;;;4918739;29;20192;-61
2022/08/02 10:18:49;;;;;;;1999.90;999.90;;;27.50;1.00;;;;;;4918869;29;20215;-60
2022/08/02 10:21:29;;;;;;;1999.90;999.90;;;28.10;1.00;;;;;;4918829;29;20208;-61
2022/08/02 10:24:05;;;;;;;1999.90;999.90;;;28.40;1.00;;;;;;4918301;29;20218;-60
2022/08/02 10:26:33;;;;;;;1999.90;999.90;;;28.60;99.90;;;;;;4918225;29;20654;-59
2022/08/02 10:29:00;;;;;;;1999.90;999.90;;;28.60;1.00;;;;;;4918252;29;20247;-58
2022/08/02 10:31:34;;;;;;;1999.90;999.90;;;28.90;1.00;;;;;;4917282;29;20212;-57
2022/08/02 10:34:03;;;;;;;1999.90;999.90;;;28.40;99.90;;;;;;4918633;29;20184;-58
2022/08/02 10:36:33;;;;;;;1999.90;999.90;;;28.70;99.90;;;;;;4918180;29;20200;-58
2022/08/02 10:39:02;;;;;;;1999.90;999.90;;;29.00;99.90;;;;;;4918239;29;20184;-58
2022/08/02 10:41:43;;;;;;;1999.90;999.90;;;29.20;99.90;;;;;;4918152;29;20611;-59
2022/08/02 10:44:21;;;;;;;1999.90;999.90;;;29.10;1.00;;;;;;4918146;29;20222;-58
2022/08/02 10:46:48;;;;;;;1999.90;999.90;;;29.70;99.90;;;;;;4918381;29;20193;-59
2022/08/02 10:49:17;;;;;;;1999.90;999.90;;;29.90;99.90;;;;;;4918438;29;20211;-58
2022/08/02 10:52:07;;;;;;;1999.90;999.90;;;28.90;99.90;;;;;;4918220;29;20221;-58
2022/08/02 10:54:37;;;;;;;1999.90;999.90;;;29.20;99.90;;;;;;4918305;29;20193;-59
2022/08/02 10:57:15;;;;;;;1999.90;999.90;;;29.50;99.90;;;;;;4918151;29;20195;-59
2022/08/02 10:59:43;;;;;;;1999.90;999.90;;;29.40;99.90;;;;;;4917988;29;20199;-59
2022/08/02 11:02:12;;;;;;;1999.90;999.90;;;28.30;99.90;;;;;;4917784;29;20683;-59
2022/08/02 11:05:04;;;;;;;1999.90;999.90;;;28.00;99.90;;;;;;4918090;29;20208;-59
2022/08/02 11:07:39;;;;;;;1999.90;999.90;;;28.20;99.90;;;;;;4917951;29;20207;-58
2022/08/02 11:10:32;;;;;;;1999.90;999.90;;;28.50;99.90;;;;;;4918048;29;20190;-58
2022/08/02 11:13:08;;;;;;;1999.90;999.90;;;28.80;99.90;;;;;;4917887;29;20192;-58
2022/08/02 11:15:59;;;;;;;1999.90;999.90;;;28.40;99.90;;;;;;4917862;29;20180;-58
2022/08/02 11:19:03;;;;;;;1999.90;999.90;;;28.80;99.90;;;;;;4914825;29;20204;-58
2022/08/02 11:21:32;;;;;;;1999.90;999.90;;;28.60;99.90;;;;;;4859407;29;20333;-59
2022/08/02 11:24:27;;;;;;;1999.90;999.90;;;28.30;99.90;;;;;;4859216;29;20211;-58
2022/08/02 11:26:54;;;;;;;1999.90;999.90;;;28.50;99.90;;;;;;4859064;29;20358;-58
2022/08/02 11:29:21;;;;;;;1999.90;999.90;;;28.30;99.90;;;;;;4858905;29;20238;-58
2022/08/02 11:31:48;;;;;;;1999.90;999.90;;;28.20;99.90;;;;;;4859005;29;20580;-59
2022/08/02 11:34:17;;;;;;;1999.90;999.90;;;28.30;99.90;;;;;;4859085;29;20206;-58
2022/08/02 11:36:46;;;;;;;1999.90;999.90;;;28.40;99.90;;;;;;4858996;29;20631;-58
2022/08/02 11:39:14;;;;;;;1999.90;999.90;;;28.70;99.90;;;;;;4859031;29;20211;-59
2022/08/02 11:41:43;;;;;;;1999.90;999.90;;;28.60;99.90;;;;;;4858742;29;20542;-59
2022/08/02 11:44:10;;;;;;;1999.90;999.90;;;28.40;99.90;;;;;;4858817;29;20305;-60
2022/08/02 11:46:37;;;;;;;1999.90;999.90;;;28.70;99.90;;;;;;4858774;29;20216;-59
2022/08/02 11:49:15;;;;;;;1999.90;999.90;;;29.60;99.90;;;;;;4858954;29;20262;-60
2022/08/02 11:52:04;;;;;;;1999.90;999.90;;;29.90;99.90;;;;;;4871740;29;20232;-60
2022/08/02 11:54:33;;;;;;;1999.90;999.90;;;29.70;99.90;;;;;;4916974;29;20184;-60
2022/08/02 11:57:16;;;;;;;1999.90;999.90;;;30.00;99.90;;;;;;4917038;29;20214;-60
2022/08/02 11:59:45;;;;;;;1999.90;999.90;;;29.50;99.90;;;;;;4916848;29;20184;-60
2022/08/02 12:02:13;;;;;;;1999.90;999.90;;;29.00;99.90;;;;;;4917023;29;20207;-60
2022/08/02 12:04:40;;;;;;;1999.90;999.90;;;28.90;99.90;;;;;;4917030;29;20208;-60
2022/08/02 12:07:08;;;;;;;1999.90;999.90;;;28.70;99.90;;;;;;4916813;29;20199;-57
2022/08/02 12:09:37;;;;;;;1999.90;999.90;;;28.70;99.90;;;;;;4916574;29;20201;-58
2022/08/02 12:12:05;;;;;;;1999.90;999.90;;;28.90;99.90;;;;;;4916171;29;20216;-58